Time,TemperatureF,DewpointF,PressureIn,WindDirection,WindDirectionDegrees,WindSpeedMPH,WindSpeedGustMPH,Humidity,HourlyPrecipIn,Conditions,Clouds,dailyrainin,SolarRadiationWatts/m^2,SoftwareType,DateUTC
2013-05-14 00:00:00,52.6,46.3,30.12,SSE,157,1.0,2.0,79,0.00,,,0.00,0,Wunderground v.1.15,2013-05-14 05:00:00,
2013-05-14 00:06:00,52.3,46.0,30.12,SSE,155,1.0,2.0,79,0.00,,,0.00,0,Wunderground v.1.15,2013-05-14 05:06:00,
2013-05-14 00:12:00,52.6,45.6,30.12,SE,142,1.0,1.0,77,0.00,,,0.00,0,Wunderground v.1.15,2013-05-14 05:12:00,
2013-05-14 00:18:00,52.8,45.8,30.11,SE,142,1.0,1.0,77,0.00,,,0.00,0,Wunderground v.1.15,2013-05-14 05:18:00,
2013-05-14 00:24:00,52.7,45.3,30.11,SE,142,0.0,1.0,76,0.00,,,0.00,0,Wunderground v.1.15,2013-05-14 05:24:00,
2013-05-14 00:30:00,53.0,45.6,30.11,SSE,155,1.0,1.0,76,0.00,,,0.00,0,Wunderground v.1.15,2013-05-14 05:30:00,
2013-05-14 00:35:00,53.3,45.6,30.11,SSE,155,1.0,2.0,75,0.00,,,0.00,0,Wunderground v.1.15,2013-05-14 05:35:00,
2013-05-14 00:41:00,53.2,45.5,30.11,SE,143,1.0,2.0,75,0.00,,,0.00,0,Wunderground v.1.15,2013-05-14 05:41:00,
2013-05-14 00:47:00,53.4,46.0,30.10,SSE,148,1.0,2.0,76,0.00,,,0.00,0,Wunderground v.1.15,2013-05-14 05:47:00,
2013-05-14 00:53:00,53.5,45.1,30.10,SSE,148,1.0,2.0,73,0.00,,,0.00,0,Wunderground v.1.15,2013-05-14 05:53:00,
2013-05-14 00:59:00,53.7,44.9,30.10,SE,146,1.0,2.0,72,0.00,,,0.00,0,Wunderground v.1.15,2013-05-14 05:59:00,
2013-05-14 01:05:00,53.6,44.0,30.10,SE,146,1.0,1.0,70,0.00,,,0.00,0,Wunderground v.1.15,2013-05-14 06:05:00,
2013-05-14 01:11:00,53.4,44.2,30.09,SE,146,1.0,1.0,71,0.00,,,0.00,0,Wunderground v.1.15,2013-05-14 06:11:00,
2013-05-14 01:16:00,53.5,44.3,30.09,SE,146,1.0,2.0,71,0.00,,,0.00,0,Wunderground v.1.15,2013-05-14 06:16:00,
2013-05-14 01:22:00,53.6,45.9,30.09,SE,146,1.0,1.0,75,0.00,,,0.00,0,Wunderground v.1.15,2013-05-14 06:22:00,
2013-05-14 01:28:00,53.4,45.3,30.09,SE,146,1.0,2.0,74,0.00,,,0.00,0,Wunderground v.1.15,2013-05-14 06:28:00,
2013-05-14 01:34:00,53.2,45.1,30.09,SE,146,1.0,3.0,74,0.00,,,0.00,0,Wunderground v.1.15,2013-05-14 06:34:00,
2013-05-14 01:40:00,53.2,45.5,30.09,SE,146,1.0,3.0,75,0.00,,,0.00,0,Wunderground v.1.15,2013-05-14 06:40:00,
2013-05-14 01:46:00,53.0,45.3,30.09,SE,142,1.0,3.0,75,0.00,,,0.00,0,Wunderground v.1.15,2013-05-14 06:46:00,
2013-05-14 01:52:00,53.0,45.3,30.08,SE,142,1.0,3.0,75,0.00,,,0.00,0,Wunderground v.1.15,2013-05-14 06:52:00,
2013-05-14 01:58:00,53.0,45.6,30.08,SE,136,1.0,3.0,76,0.00,,,0.00,0,Wunderground v.1.15,2013-05-14 06:58:00,
2013-05-14 02:04:00,52.8,45.8,30.08,SE,141,1.0,3.0,77,0.00,,,0.00,0,Wunderground v.1.15,2013-05-14 07:04:00,
2013-05-14 02:10:00,53.2,45.5,30.08,SE,136,1.0,1.0,75,0.00,,,0.00,0,Wunderground v.1.15,2013-05-14 07:10:00,
2013-05-14 02:16:00,53.5,45.4,30.08,SE,141,1.0,2.0,74,0.00,,,0.00,0,Wunderground v.1.15,2013-05-14 07:16:00,
2013-05-14 02:22:00,53.9,45.1,30.08,SE,136,1.0,1.0,72,0.00,,,0.00,0,Wunderground v.1.15,2013-05-14 07:22:00,
2013-05-14 02:27:00,54.0,45.5,30.07,SE,129,1.0,2.0,73,0.00,,,0.00,0,Wunderground v.1.15,2013-05-14 07:27:00,
2013-05-14 02:33:00,54.2,45.0,30.07,SE,130,1.0,2.0,71,0.00,,,0.00,0,Wunderground v.1.15,2013-05-14 07:33:00,
2013-05-14 02:39:00,54.7,45.1,30.07,SE,134,1.0,2.0,70,0.00,,,0.00,0,Wunderground v.1.15,2013-05-14 07:39:00,
2013-05-14 02:45:00,55.3,44.9,30.07,SE,134,1.0,2.0,68,0.00,,,0.00,0,Wunderground v.1.15,2013-05-14 07:45:00,
2013-05-14 02:51:00,55.5,45.1,30.06,SE,141,1.0,2.0,68,0.00,,,0.00,0,Wunderground v.1.15,2013-05-14 07:51:00,
2013-05-14 02:57:00,55.7,45.7,30.06,SE,146,1.0,3.0,69,0.00,,,0.00,0,Wunderground v.1.15,2013-05-14 07:57:00,
2013-05-14 03:03:00,55.7,45.3,30.06,SSE,148,2.0,4.0,68,0.00,,,0.00,0,Wunderground v.1.15,2013-05-14 08:03:00,
2013-05-14 03:09:00,55.7,45.3,30.06,SE,132,2.0,4.0,68,0.00,,,0.00,0,Wunderground v.1.15,2013-05-14 08:09:00,
2013-05-14 03:15:00,55.8,45.4,30.05,SE,134,2.0,3.0,68,0.00,,,0.00,0,Wunderground v.1.15,2013-05-14 08:15:00,
2013-05-14 03:20:00,55.8,45.4,30.06,SE,136,2.0,2.0,68,0.00,,,0.00,0,Wunderground v.1.15,2013-05-14 08:20:00,
2013-05-14 03:26:00,55.8,45.0,30.06,SSE,165,2.0,3.0,67,0.00,,,0.00,0,Wunderground v.1.15,2013-05-14 08:26:00,
2013-05-14 03:31:00,55.9,45.1,30.06,SE,146,2.0,3.0,67,0.00,,,0.00,0,Wunderground v.1.15,2013-05-14 08:31:00,
2013-05-14 03:37:00,55.9,45.1,30.06,SE,140,2.0,3.0,67,0.00,,,0.00,0,Wunderground v.1.15,2013-05-14 08:37:00,
2013-05-14 03:43:00,55.8,45.4,30.06,SSE,147,2.0,3.0,68,0.00,,,0.00,0,Wunderground v.1.15,2013-05-14 08:43:00,
2013-05-14 03:49:00,55.6,45.2,30.06,SE,136,1.0,3.0,68,0.00,,,0.00,0,Wunderground v.1.15,2013-05-14 08:49:00,
2013-05-14 03:55:00,55.5,45.5,30.06,SE,134,1.0,3.0,69,0.00,,,0.00,0,Wunderground v.1.15,2013-05-14 08:55:00,
2013-05-14 04:00:00,55.2,45.6,30.05,SE,134,1.0,2.0,70,0.00,,,0.00,0,Wunderground v.1.15,2013-05-14 09:00:00,
2013-05-14 04:05:00,55.0,45.8,30.05,SE,134,1.0,2.0,71,0.00,,,0.00,0,Wunderground v.1.15,2013-05-14 09:05:00,
2013-05-14 04:11:00,54.9,45.3,30.05,SE,135,1.0,2.0,70,0.00,,,0.00,0,Wunderground v.1.15,2013-05-14 09:11:00,
2013-05-14 04:17:00,55.0,45.8,30.05,SE,142,1.0,3.0,71,0.00,,,0.00,0,Wunderground v.1.15,2013-05-14 09:17:00,
2013-05-14 04:23:00,54.9,45.7,30.05,SE,139,1.0,2.0,71,0.00,,,0.00,0,Wunderground v.1.15,2013-05-14 09:23:00,
2013-05-14 04:29:00,54.7,45.8,30.05,SE,139,1.0,2.0,72,0.00,,,0.00,0,Wunderground v.1.15,2013-05-14 09:29:00,
2013-05-14 04:35:00,54.4,46.3,30.05,SSE,149,1.0,4.0,74,0.00,,,0.00,0,Wunderground v.1.15,2013-05-14 09:35:00,
2013-05-14 04:41:00,54.1,46.3,30.05,SSE,149,1.0,4.0,75,0.00,,,0.00,0,Wunderground v.1.15,2013-05-14 09:41:00,
2013-05-14 04:47:00,53.9,46.2,30.05,SE,138,1.0,4.0,75,0.00,,,0.00,0,Wunderground v.1.15,2013-05-14 09:47:00,
2013-05-14 04:53:00,53.8,46.4,30.05,SE,126,1.0,4.0,76,0.00,,,0.00,0,Wunderground v.1.15,2013-05-14 09:53:00,
2013-05-14 04:59:00,53.6,46.2,30.05,SE,129,1.0,4.0,76,0.00,,,0.00,0,Wunderground v.1.15,2013-05-14 09:59:00,
2013-05-14 05:05:00,53.5,46.5,30.05,SE,138,1.0,1.0,77,0.00,,,0.00,0,Wunderground v.1.15,2013-05-14 10:05:00,
2013-05-14 05:11:00,53.4,46.7,30.05,SE,138,1.0,1.0,78,0.00,,,0.00,0,Wunderground v.1.15,2013-05-14 10:11:00,
2013-05-14 05:17:00,53.5,46.5,30.05,SE,129,1.0,2.0,77,0.00,,,0.00,0,Wunderground v.1.15,2013-05-14 10:17:00,
2013-05-14 05:23:00,53.5,46.8,30.05,SE,140,1.0,2.0,78,0.00,,,0.00,0,Wunderground v.1.15,2013-05-14 10:23:00,
2013-05-14 05:28:00,53.5,47.1,30.05,SE,138,1.0,2.0,79,0.00,,,0.00,0,Wunderground v.1.15,2013-05-14 10:28:00,
2013-05-14 05:34:00,53.4,47.0,30.05,SE,136,1.0,4.0,79,0.00,,,0.00,0,Wunderground v.1.15,2013-05-14 10:34:00,
2013-05-14 05:40:00,53.3,47.0,30.05,SE,139,1.0,1.0,79,0.00,,,0.00,0,Wunderground v.1.15,2013-05-14 10:40:00,
2013-05-14 05:46:00,53.3,47.3,30.05,SE,139,0.0,4.0,80,0.00,,,0.00,0,Wunderground v.1.15,2013-05-14 10:46:00,
2013-05-14 05:52:00,53.3,47.6,30.05,SE,139,0.0,4.0,81,0.00,,,0.00,0,Wunderground v.1.15,2013-05-14 10:52:00,
2013-05-14 05:58:00,53.3,47.3,30.05,SE,134,1.0,4.0,80,0.00,,,0.00,5,Wunderground v.1.15,2013-05-14 10:58:00,
2013-05-14 06:04:00,53.3,47.6,30.05,SE,134,1.0,1.0,81,0.00,,,0.00,9,Wunderground v.1.15,2013-05-14 11:04:00,
2013-05-14 06:10:00,53.3,47.6,30.05,SE,134,1.0,1.0,81,0.00,,,0.00,11,Wunderground v.1.15,2013-05-14 11:10:00,
2013-05-14 06:16:00,53.3,47.9,30.05,SE,144,1.0,3.0,82,0.00,,,0.00,11,Wunderground v.1.15,2013-05-14 11:16:00,
2013-05-14 06:22:00,53.5,48.1,30.05,SE,143,1.0,2.0,82,0.00,,,0.00,11,Wunderground v.1.15,2013-05-14 11:22:00,
2013-05-14 06:27:00,53.7,48.3,30.05,SE,144,1.0,2.0,82,0.00,,,0.00,12,Wunderground v.1.15,2013-05-14 11:27:00,
2013-05-14 06:33:00,53.8,48.4,30.05,SE,143,1.0,3.0,82,0.00,,,0.00,14,Wunderground v.1.15,2013-05-14 11:33:00,
2013-05-14 06:39:00,54.2,48.8,30.05,SE,133,1.0,3.0,82,0.00,,,0.00,16,Wunderground v.1.15,2013-05-14 11:39:00,
2013-05-14 06:45:00,54.4,49.0,30.05,SE,140,1.0,3.0,82,0.00,,,0.00,19,Wunderground v.1.15,2013-05-14 11:45:00,
2013-05-14 06:51:00,54.5,49.4,30.06,SE,140,1.0,3.0,83,0.00,,,0.00,28,Wunderground v.1.15,2013-05-14 11:51:00,
2013-05-14 06:57:00,55.0,49.9,30.05,SSE,155,1.0,3.0,83,0.00,,,0.00,30,Wunderground v.1.15,2013-05-14 11:57:00,
2013-05-14 07:03:00,55.9,50.2,30.06,SSE,162,1.0,2.0,81,0.00,,,0.00,33,Wunderground v.1.15,2013-05-14 12:03:00,
2013-05-14 07:08:00,56.8,50.4,30.06,SE,144,1.0,3.0,79,0.00,,,0.00,37,Wunderground v.1.15,2013-05-14 12:08:00,
2013-05-14 07:14:00,57.7,50.9,30.06,SE,142,1.0,2.0,78,0.00,,,0.00,40,Wunderground v.1.15,2013-05-14 12:14:00,
2013-05-14 07:20:00,58.6,51.4,30.06,SE,134,1.0,1.0,77,0.00,,,0.00,35,Wunderground v.1.15,2013-05-14 12:20:00,
2013-05-14 07:26:00,59.3,51.7,30.06,SSE,163,1.0,3.0,76,0.00,,,0.00,35,Wunderground v.1.15,2013-05-14 12:26:00,
2013-05-14 07:32:00,59.9,51.6,30.06,WSW,245,1.0,3.0,74,0.00,,,0.00,37,Wunderground v.1.15,2013-05-14 12:32:00,
2013-05-14 07:37:00,60.4,52.4,30.06,NW,319,1.0,3.0,75,0.00,,,0.00,37,Wunderground v.1.15,2013-05-14 12:37:00,
2013-05-14 07:43:00,60.9,52.6,30.06,South,190,1.0,3.0,74,0.00,,,0.00,39,Wunderground v.1.15,2013-05-14 12:43:00,
2013-05-14 07:49:00,61.4,52.7,30.05,SSE,167,1.0,3.0,73,0.00,,,0.00,40,Wunderground v.1.15,2013-05-14 12:49:00,
2013-05-14 07:55:00,61.9,52.8,30.05,ENE,74,2.0,3.0,72,0.00,,,0.00,47,Wunderground v.1.15,2013-05-14 12:55:00,
2013-05-14 08:00:00,62.3,53.2,30.05,South,171,2.0,2.0,72,0.00,,,0.00,53,Wunderground v.1.15,2013-05-14 13:00:00,
2013-05-14 08:06:00,62.7,52.8,30.05,East,84,1.0,3.0,70,0.00,,,0.00,56,Wunderground v.1.15,2013-05-14 13:06:00,
2013-05-14 08:11:00,63.0,53.1,30.05,ESE,113,1.0,2.0,70,0.00,,,0.00,62,Wunderground v.1.15,2013-05-14 13:11:00,
2013-05-14 08:17:00,63.4,53.0,30.05,SSW,208,1.0,2.0,69,0.00,,,0.00,51,Wunderground v.1.15,2013-05-14 13:17:00,
2013-05-14 08:23:00,63.8,53.0,30.05,SSW,211,1.0,1.0,68,0.00,,,0.00,432,Wunderground v.1.15,2013-05-14 13:23:00,
2013-05-14 08:29:00,64.2,53.8,30.05,WNW,296,1.0,1.0,69,0.00,,,0.00,362,Wunderground v.1.15,2013-05-14 13:29:00,
2013-05-14 08:35:00,64.7,53.5,30.05,WSW,246,1.0,4.0,67,0.00,,,0.00,58,Wunderground v.1.15,2013-05-14 13:35:00,
2013-05-14 08:41:00,65.2,54.0,30.05,WNW,293,2.0,5.0,67,0.00,,,0.00,62,Wunderground v.1.15,2013-05-14 13:41:00,
2013-05-14 08:47:00,65.6,54.3,30.05,WNW,301,2.0,5.0,67,0.00,,,0.00,107,Wunderground v.1.15,2013-05-14 13:47:00,
2013-05-14 08:53:00,66.2,54.5,30.04,West,272,2.0,4.0,66,0.00,,,0.00,540,Wunderground v.1.15,2013-05-14 13:53:00,
2013-05-14 08:58:00,66.8,54.7,30.04,WSW,258,2.0,4.0,65,0.00,,,0.00,563,Wunderground v.1.15,2013-05-14 13:58:00,
2013-05-14 09:04:00,67.7,55.1,30.04,West,281,1.0,2.0,64,0.00,,,0.00,577,Wunderground v.1.15,2013-05-14 14:04:00,
2013-05-14 09:10:00,68.4,55.3,30.04,West,270,1.0,2.0,63,0.00,,,0.00,589,Wunderground v.1.15,2013-05-14 14:10:00,
2013-05-14 09:16:00,68.8,55.2,30.04,WNW,288,1.0,4.0,62,0.00,,,0.00,626,Wunderground v.1.15,2013-05-14 14:16:00,
2013-05-14 09:22:00,69.2,56.5,30.04,WSW,239,2.0,4.0,64,0.00,,,0.00,253,Wunderground v.1.15,2013-05-14 14:22:00,
2013-05-14 09:28:00,69.7,56.1,30.04,WNW,289,2.0,5.0,62,0.00,,,0.00,260,Wunderground v.1.15,2013-05-14 14:28:00,
2013-05-14 09:34:00,70.1,56.0,30.04,NW,317,2.0,5.0,61,0.00,,,0.00,137,Wunderground v.1.15,2013-05-14 14:34:00,
2013-05-14 09:39:00,70.4,55.8,30.03,SSE,161,2.0,5.0,60,0.00,,,0.00,374,Wunderground v.1.15,2013-05-14 14:39:00,
2013-05-14 09:45:00,70.8,56.2,30.03,SSE,153,2.0,5.0,60,0.00,,,0.00,721,Wunderground v.1.15,2013-05-14 14:45:00,
2013-05-14 09:51:00,71.5,56.4,30.03,SW,222,1.0,5.0,59,0.00,,,0.00,744,Wunderground v.1.15,2013-05-14 14:51:00,
2013-05-14 09:57:00,72.2,56.6,30.03,ESE,105,2.0,7.0,58,0.00,,,0.00,758,Wunderground v.1.15,2013-05-14 14:57:00,
2013-05-14 10:02:00,72.7,56.6,30.03,SSE,150,2.0,3.0,57,0.00,,,0.00,773,Wunderground v.1.15,2013-05-14 15:02:00,
2013-05-14 10:07:00,73.2,56.1,30.03,NNW,327,2.0,3.0,55,0.00,,,0.00,788,Wunderground v.1.15,2013-05-14 15:07:00,
2013-05-14 10:13:00,73.8,56.1,30.03,SSW,209,2.0,4.0,54,0.00,,,0.00,805,Wunderground v.1.15,2013-05-14 15:13:00,
2013-05-14 10:19:00,74.2,57.5,30.03,SSW,211,2.0,4.0,56,0.00,,,0.00,819,Wunderground v.1.15,2013-05-14 15:19:00,
2013-05-14 10:25:00,74.6,57.4,30.03,WNW,290,2.0,3.0,55,0.00,,,0.00,837,Wunderground v.1.15,2013-05-14 15:25:00,
2013-05-14 10:31:00,75.0,57.2,30.03,ENE,59,2.0,6.0,54,0.00,,,0.00,851,Wunderground v.1.15,2013-05-14 15:31:00,
2013-05-14 10:37:00,75.4,57.6,30.03,West,263,2.0,6.0,54,0.00,,,0.00,865,Wunderground v.1.15,2013-05-14 15:37:00,
2013-05-14 10:42:00,75.7,57.4,30.02,SSE,148,2.0,6.0,53,0.00,,,0.00,877,Wunderground v.1.15,2013-05-14 15:42:00,
2013-05-14 10:48:00,76.1,58.2,30.02,West,268,2.0,6.0,54,0.00,,,0.00,891,Wunderground v.1.15,2013-05-14 15:48:00,
2013-05-14 10:54:00,76.6,57.7,30.02,SSW,200,2.0,6.0,52,0.00,,,0.00,905,Wunderground v.1.15,2013-05-14 15:54:00,
2013-05-14 11:00:00,77.1,58.1,30.02,NW,313,2.0,2.0,52,0.00,,,0.00,921,Wunderground v.1.15,2013-05-14 16:00:00,
2013-05-14 11:06:00,77.9,58.9,30.02,WSW,238,2.0,5.0,52,0.00,,,0.00,930,Wunderground v.1.15,2013-05-14 16:06:00,
2013-05-14 11:12:00,78.4,58.2,30.02,SW,215,2.0,2.0,50,0.00,,,0.00,940,Wunderground v.1.15,2013-05-14 16:12:00,
2013-05-14 11:18:00,78.9,59.2,30.02,WNW,291,2.0,5.0,51,0.00,,,0.00,956,Wunderground v.1.15,2013-05-14 16:18:00,
2013-05-14 11:23:00,79.2,57.8,30.02,WSW,240,2.0,4.0,48,0.00,,,0.00,937,Wunderground v.1.15,2013-05-14 16:23:00,
2013-05-14 11:29:00,79.3,57.9,30.02,West,261,2.0,4.0,48,0.00,,,0.00,970,Wunderground v.1.15,2013-05-14 16:29:00,
2013-05-14 11:35:00,79.6,58.8,30.01,SSE,162,2.0,6.0,49,0.00,,,0.00,976,Wunderground v.1.15,2013-05-14 16:35:00,
2013-05-14 11:41:00,79.6,58.2,30.01,SE,136,2.0,6.0,48,0.00,,,0.00,984,Wunderground v.1.15,2013-05-14 16:41:00,
2013-05-14 11:47:00,80.1,60.9,30.01,SSE,167,3.0,6.0,52,0.00,,,0.00,990,Wunderground v.1.15,2013-05-14 16:47:00,
2013-05-14 11:53:00,80.4,57.7,30.01,SSW,199,3.0,6.0,46,0.00,,,0.00,997,Wunderground v.1.15,2013-05-14 16:53:00,
2013-05-14 11:59:00,80.3,57.6,30.01,WSW,241,3.0,6.0,46,0.00,,,0.00,1002,Wunderground v.1.15,2013-05-14 16:59:00,
2013-05-14 12:05:00,80.6,59.1,30.00,East,92,3.0,4.0,48,0.00,,,0.00,1009,Wunderground v.1.15,2013-05-14 17:05:00,
2013-05-14 12:11:00,80.9,58.2,30.00,WNW,286,3.0,6.0,46,0.00,,,0.00,1013,Wunderground v.1.15,2013-05-14 17:11:00,
2013-05-14 12:17:00,81.1,58.4,30.00,NNW,347,3.0,6.0,46,0.00,,,0.00,1014,Wunderground v.1.15,2013-05-14 17:17:00,
2013-05-14 12:23:00,81.6,58.2,29.99,NW,321,3.0,5.0,45,0.00,,,0.00,1020,Wunderground v.1.15,2013-05-14 17:23:00,
2013-05-14 12:28:00,81.9,58.5,29.99,SE,146,3.0,6.0,45,0.00,,,0.00,1020,Wunderground v.1.15,2013-05-14 17:28:00,
2013-05-14 12:34:00,82.0,57.9,29.99,NW,317,3.0,8.0,44,0.00,,,0.00,1027,Wunderground v.1.15,2013-05-14 17:34:00,
2013-05-14 12:40:00,82.1,58.0,29.99,SE,142,3.0,3.0,44,0.00,,,0.00,1028,Wunderground v.1.15,2013-05-14 17:40:00,
2013-05-14 12:46:00,82.4,59.5,29.98,East,88,3.0,8.0,46,0.00,,,0.00,1030,Wunderground v.1.15,2013-05-14 17:46:00,
2013-05-14 12:52:00,82.9,58.7,29.98,NW,317,3.0,8.0,44,0.00,,,0.00,1028,Wunderground v.1.15,2013-05-14 17:52:00,
2013-05-14 12:58:00,82.6,57.8,29.98,SSE,147,4.0,8.0,43,0.00,,,0.00,1028,Wunderground v.1.15,2013-05-14 17:58:00,
2013-05-14 13:04:00,82.6,56.5,29.98,South,187,4.0,8.0,41,0.00,,,0.00,1027,Wunderground v.1.15,2013-05-14 18:04:00,
2013-05-14 13:09:00,82.4,58.3,29.97,SW,235,4.0,13.0,44,0.00,,,0.00,1021,Wunderground v.1.15,2013-05-14 18:09:00,
2013-05-14 13:15:00,82.9,58.1,29.97,WNW,298,4.0,7.0,43,0.00,,,0.00,1011,Wunderground v.1.15,2013-05-14 18:15:00,
2013-05-14 13:21:00,83.1,58.3,29.97,NW,321,5.0,5.0,43,0.00,,,0.00,1020,Wunderground v.1.15,2013-05-14 18:21:00,
2013-05-14 13:27:00,83.2,58.4,29.97,NW,322,5.0,9.0,43,0.00,,,0.00,1018,Wunderground v.1.15,2013-05-14 18:27:00,
2013-05-14 13:33:00,83.4,57.2,29.96,SW,215,3.0,9.0,41,0.00,,,0.00,1009,Wunderground v.1.15,2013-05-14 18:33:00,
2013-05-14 13:39:00,84.0,59.1,29.96,WNW,284,3.0,9.0,43,0.00,,,0.00,1005,Wunderground v.1.15,2013-05-14 18:39:00,
2013-05-14 13:45:00,84.2,57.3,29.96,NNW,331,4.0,10.0,40,0.00,,,0.00,995,Wunderground v.1.15,2013-05-14 18:45:00,
2013-05-14 13:50:00,84.3,58.0,29.96,NNW,328,3.0,9.0,41,0.00,,,0.00,986,Wunderground v.1.15,2013-05-14 18:50:00,
2013-05-14 13:56:00,84.2,57.3,29.96,West,277,3.0,9.0,40,0.00,,,0.00,984,Wunderground v.1.15,2013-05-14 18:56:00,
2013-05-14 14:02:00,84.6,59.6,29.95,SW,233,3.0,3.0,43,0.00,,,0.00,981,Wunderground v.1.15,2013-05-14 19:02:00,
2013-05-14 14:08:00,84.9,57.9,29.96,SW,229,3.0,6.0,40,0.00,,,0.00,977,Wunderground v.1.15,2013-05-14 19:08:00,
2013-05-14 14:14:00,84.9,58.6,29.95,WNW,288,4.0,4.0,41,0.00,,,0.00,969,Wunderground v.1.15,2013-05-14 19:14:00,
2013-05-14 14:20:00,85.1,60.1,29.95,WSW,256,4.0,4.0,43,0.00,,,0.00,960,Wunderground v.1.15,2013-05-14 19:20:00,
2013-05-14 14:26:00,85.3,58.2,29.95,SW,227,5.0,7.0,40,0.00,,,0.00,946,Wunderground v.1.15,2013-05-14 19:26:00,
2013-05-14 14:32:00,85.4,59.7,29.95,SSE,149,4.0,14.0,42,0.00,,,0.00,937,Wunderground v.1.15,2013-05-14 19:32:00,
2013-05-14 14:38:00,85.6,59.2,29.95,SSW,200,3.0,14.0,41,0.00,,,0.00,926,Wunderground v.1.15,2013-05-14 19:38:00,
2013-05-14 14:44:00,86.1,60.3,29.94,North,355,3.0,14.0,42,0.00,,,0.00,914,Wunderground v.1.15,2013-05-14 19:44:00,
2013-05-14 14:49:00,86.5,60.7,29.94,NNW,334,3.0,14.0,42,0.00,,,0.00,904,Wunderground v.1.15,2013-05-14 19:49:00,
2013-05-14 14:55:00,86.2,58.3,29.94,NW,314,4.0,14.0,39,0.00,,,0.00,891,Wunderground v.1.15,2013-05-14 19:55:00,
2013-05-14 15:00:00,86.0,57.4,29.94,SW,235,4.0,6.0,38,0.00,,,0.00,884,Wunderground v.1.15,2013-05-14 20:00:00,
2013-05-14 15:06:00,86.3,58.4,29.94,West,279,4.0,6.0,39,0.00,,,0.00,872,Wunderground v.1.15,2013-05-14 20:06:00,
2013-05-14 15:12:00,86.4,57.8,29.94,NW,307,4.0,4.0,38,0.00,,,0.00,856,Wunderground v.1.15,2013-05-14 20:12:00,
2013-05-14 15:18:00,86.4,57.8,29.94,NNW,346,4.0,7.0,38,0.00,,,0.00,842,Wunderground v.1.15,2013-05-14 20:18:00,
2013-05-14 15:23:00,86.3,57.0,29.94,WNW,302,4.0,9.0,37,0.00,,,0.00,833,Wunderground v.1.15,2013-05-14 20:23:00,
2013-05-14 15:29:00,86.5,59.3,29.94,NW,322,4.0,9.0,40,0.00,,,0.00,816,Wunderground v.1.15,2013-05-14 20:29:00,
2013-05-14 15:35:00,87.0,59.0,29.93,NW,321,3.0,13.0,39,0.00,,,0.00,802,Wunderground v.1.15,2013-05-14 20:35:00,
2013-05-14 15:40:00,87.0,56.8,29.93,SE,137,3.0,13.0,36,0.00,,,0.00,789,Wunderground v.1.15,2013-05-14 20:40:00,
2013-05-14 15:46:00,86.5,57.1,29.93,North,350,5.0,13.0,37,0.00,,,0.00,766,Wunderground v.1.15,2013-05-14 20:46:00,
2013-05-14 15:52:00,86.0,56.7,29.93,NW,304,5.0,13.0,37,0.00,,,0.00,756,Wunderground v.1.15,2013-05-14 20:52:00,
2013-05-14 15:57:00,86.2,58.3,29.93,WNW,300,5.0,13.0,39,0.00,,,0.00,745,Wunderground v.1.15,2013-05-14 20:57:00,
2013-05-14 16:03:00,86.4,57.0,29.93,NW,315,5.0,9.0,37,0.00,,,0.00,728,Wunderground v.1.15,2013-05-14 21:03:00,
2013-05-14 16:09:00,85.9,57.3,29.93,NW,304,5.0,9.0,38,0.00,,,0.00,710,Wunderground v.1.15,2013-05-14 21:09:00,
2013-05-14 16:15:00,85.8,56.5,29.93,WNW,289,6.0,11.0,37,0.00,,,0.00,689,Wunderground v.1.15,2013-05-14 21:15:00,
2013-05-14 16:21:00,85.3,56.8,29.93,NW,317,8.0,9.0,38,0.00,,,0.00,673,Wunderground v.1.15,2013-05-14 21:21:00,
2013-05-14 16:27:00,85.1,56.6,29.93,NW,305,7.0,10.0,38,0.00,,,0.00,649,Wunderground v.1.15,2013-05-14 21:27:00,
2013-05-14 16:33:00,85.3,56.8,29.93,WNW,285,6.0,12.0,38,0.00,,,0.00,621,Wunderground v.1.15,2013-05-14 21:33:00,
2013-05-14 16:39:00,85.5,58.4,29.93,SW,222,6.0,12.0,40,0.00,,,0.00,606,Wunderground v.1.15,2013-05-14 21:39:00,
2013-05-14 16:45:00,85.5,58.4,29.93,SW,225,5.0,12.0,40,0.00,,,0.00,589,Wunderground v.1.15,2013-05-14 21:45:00,
2013-05-14 16:50:00,85.9,57.3,29.93,West,280,5.0,13.0,38,0.00,,,0.00,575,Wunderground v.1.15,2013-05-14 21:50:00,
2013-05-14 16:56:00,85.4,58.3,29.93,NNW,331,6.0,13.0,40,0.00,,,0.00,557,Wunderground v.1.15,2013-05-14 21:56:00,
2013-05-14 17:02:00,85.5,58.4,29.93,WNW,288,5.0,6.0,40,0.00,,,0.00,533,Wunderground v.1.15,2013-05-14 22:02:00,
2013-05-14 17:08:00,85.5,58.4,29.93,WNW,296,5.0,8.0,40,0.00,,,0.00,513,Wunderground v.1.15,2013-05-14 22:08:00,
2013-05-14 17:14:00,85.6,59.2,29.93,NNW,327,4.0,10.0,41,0.00,,,0.00,492,Wunderground v.1.15,2013-05-14 22:14:00,
2013-05-14 17:20:00,85.6,58.5,29.93,WNW,282,4.0,10.0,40,0.00,,,0.00,471,Wunderground v.1.15,2013-05-14 22:20:00,
2013-05-14 17:26:00,85.2,58.8,29.92,NW,311,5.0,10.0,41,0.00,,,0.00,452,Wunderground v.1.15,2013-05-14 22:26:00,
2013-05-14 17:32:00,85.3,58.9,29.92,NNW,348,4.0,18.0,41,0.00,,,0.00,420,Wunderground v.1.15,2013-05-14 22:32:00,
2013-05-14 17:37:00,85.4,58.3,29.92,SSW,196,4.0,18.0,40,0.00,,,0.00,401,Wunderground v.1.15,2013-05-14 22:37:00,
2013-05-14 17:43:00,85.6,59.2,29.92,WNW,284,3.0,18.0,41,0.00,,,0.00,388,Wunderground v.1.15,2013-05-14 22:43:00,
2013-05-14 17:49:00,85.5,59.1,29.92,WNW,287,3.0,18.0,41,0.00,,,0.00,359,Wunderground v.1.15,2013-05-14 22:49:00,
2013-05-14 17:55:00,85.2,59.5,29.92,ENE,57,4.0,18.0,42,0.00,,,0.00,341,Wunderground v.1.15,2013-05-14 22:55:00,
2013-05-14 18:00:00,85.0,59.3,29.92,WNW,298,3.0,3.0,42,0.00,,,0.00,323,Wunderground v.1.15,2013-05-14 23:00:00,
2013-05-14 18:06:00,85.0,59.3,29.92,NW,309,3.0,6.0,42,0.00,,,0.00,295,Wunderground v.1.15,2013-05-14 23:06:00,
2013-05-14 18:12:00,84.5,58.9,29.92,NW,326,3.0,5.0,42,0.00,,,0.00,264,Wunderground v.1.15,2013-05-14 23:12:00,
2013-05-14 18:18:00,84.2,59.3,29.92,NW,323,4.0,5.0,43,0.00,,,0.00,251,Wunderground v.1.15,2013-05-14 23:18:00,
2013-05-14 18:24:00,84.0,59.1,29.91,WNW,283,3.0,5.0,43,0.00,,,0.00,230,Wunderground v.1.15,2013-05-14 23:24:00,
2013-05-14 18:30:00,83.7,58.8,29.91,SW,218,3.0,5.0,43,0.00,,,0.00,176,Wunderground v.1.15,2013-05-14 23:30:00,
2013-05-14 18:36:00,83.4,58.6,29.91,NE,44,4.0,12.0,43,0.00,,,0.00,192,Wunderground v.1.15,2013-05-14 23:36:00,
2013-05-14 18:42:00,82.9,58.7,29.91,SSW,207,4.0,12.0,44,0.00,,,0.00,134,Wunderground v.1.15,2013-05-14 23:42:00,
2013-05-14 18:48:00,82.8,58.7,29.91,NW,306,4.0,12.0,44,0.00,,,0.00,149,Wunderground v.1.15,2013-05-14 23:48:00,
2013-05-14 18:54:00,82.8,59.3,29.91,West,275,3.0,12.0,45,0.00,,,0.00,127,Wunderground v.1.15,2013-05-14 23:54:00,
2013-05-14 19:00:00,82.6,59.1,29.91,WNW,282,3.0,3.0,45,0.00,,,0.00,105,Wunderground v.1.15,2013-05-15 00:00:00,
2013-05-14 19:05:00,82.3,58.8,29.91,West,276,3.0,5.0,45,0.00,,,0.00,86,Wunderground v.1.15,2013-05-15 00:05:00,
2013-05-14 19:11:00,82.1,59.3,29.91,NNW,339,2.0,2.0,46,0.00,,,0.00,70,Wunderground v.1.15,2013-05-15 00:11:00,
2013-05-14 19:17:00,81.9,59.1,29.91,West,266,2.0,2.0,46,0.00,,,0.00,53,Wunderground v.1.15,2013-05-15 00:17:00,
2013-05-14 19:23:00,81.7,60.1,29.92,WSW,248,1.0,2.0,48,0.00,,,0.00,40,Wunderground v.1.15,2013-05-15 00:23:00,
2013-05-14 19:29:00,81.2,60.8,29.92,WSW,257,1.0,5.0,50,0.00,,,0.00,28,Wunderground v.1.15,2013-05-15 00:29:00,
2013-05-14 19:35:00,80.6,60.8,29.91,WSW,255,1.0,13.0,51,0.00,,,0.00,21,Wunderground v.1.15,2013-05-15 00:35:00,
2013-05-14 19:40:00,80.1,60.3,29.91,SW,218,1.0,1.0,51,0.00,,,0.00,14,Wunderground v.1.15,2013-05-15 00:40:00,
2013-05-14 19:46:00,79.4,60.8,29.91,NE,34,1.0,13.0,53,0.00,,,0.00,7,Wunderground v.1.15,2013-05-15 00:46:00,
2013-05-14 19:52:00,78.7,60.1,29.92,WNW,299,1.0,13.0,53,0.00,,,0.00,0,Wunderground v.1.15,2013-05-15 00:52:00,
2013-05-14 19:58:00,78.2,60.7,29.92,NW,311,1.0,13.0,55,0.00,,,0.00,0,Wunderground v.1.15,2013-05-15 00:58:00,
2013-05-14 20:04:00,77.7,60.2,29.92,West,273,1.0,2.0,55,0.00,,,0.00,0,Wunderground v.1.15,2013-05-15 01:04:00,
2013-05-14 20:10:00,77.3,60.4,29.92,SW,231,1.0,1.0,56,0.00,,,0.00,0,Wunderground v.1.15,2013-05-15 01:10:00,
2013-05-14 20:16:00,76.9,60.5,29.92,SSW,202,1.0,5.0,57,0.00,,,0.00,0,Wunderground v.1.15,2013-05-15 01:16:00,
2013-05-14 20:21:00,76.6,60.7,29.92,South,171,1.0,1.0,58,0.00,,,0.00,0,Wunderground v.1.15,2013-05-15 01:21:00,
2013-05-14 20:27:00,76.3,60.4,29.92,NNW,331,1.0,2.0,58,0.00,,,0.00,0,Wunderground v.1.15,2013-05-15 01:27:00,
2013-05-14 20:33:00,75.9,60.5,29.92,SW,222,1.0,8.0,59,0.00,,,0.00,0,Wunderground v.1.15,2013-05-15 01:33:00,
2013-05-14 20:39:00,75.7,60.4,29.92,WSW,245,1.0,8.0,59,0.00,,,0.00,0,Wunderground v.1.15,2013-05-15 01:39:00,
2013-05-14 20:44:00,75.5,60.6,29.92,SSW,194,1.0,8.0,60,0.00,,,0.00,0,Wunderground v.1.15,2013-05-15 01:44:00,
2013-05-14 20:50:00,75.3,60.5,29.92,WNW,284,0.0,8.0,60,0.00,,,0.00,0,Wunderground v.1.15,2013-05-15 01:50:00,
2013-05-14 20:56:00,75.1,60.3,29.92,West,263,1.0,8.0,60,0.00,,,0.00,0,Wunderground v.1.15,2013-05-15 01:56:00,
2013-05-14 21:02:00,75.0,60.2,29.92,WSW,244,1.0,1.0,60,0.00,,,0.00,0,Wunderground v.1.15,2013-05-15 02:02:00,
2013-05-14 21:08:00,74.9,60.1,29.93,SSW,196,1.0,3.0,60,0.00,,,0.00,0,Wunderground v.1.15,2013-05-15 02:08:00,
2013-05-14 21:14:00,74.9,60.1,29.92,North,11,1.0,2.0,60,0.00,,,0.00,0,Wunderground v.1.15,2013-05-15 02:14:00,
2013-05-14 21:20:00,74.8,60.0,29.93,NNW,330,1.0,1.0,60,0.00,,,0.00,0,Wunderground v.1.15,2013-05-15 02:20:00,
2013-05-14 21:26:00,74.7,59.9,29.93,NNE,22,1.0,2.0,60,0.00,,,0.00,0,Wunderground v.1.15,2013-05-15 02:26:00,
2013-05-14 21:32:00,74.7,59.9,29.93,SSW,212,1.0,7.0,60,0.00,,,0.00,0,Wunderground v.1.15,2013-05-15 02:32:00,
2013-05-14 21:37:00,74.6,59.8,29.93,SW,232,1.0,7.0,60,0.00,,,0.00,0,Wunderground v.1.15,2013-05-15 02:37:00,
2013-05-14 21:43:00,74.5,59.7,29.93,NW,324,1.0,5.0,60,0.00,,,0.00,0,Wunderground v.1.15,2013-05-15 02:43:00,
2013-05-14 21:49:00,74.4,59.6,29.93,SW,229,1.0,5.0,60,0.00,,,0.00,0,Wunderground v.1.15,2013-05-15 02:49:00,
2013-05-14 21:55:00,74.4,59.6,29.93,NW,317,1.0,5.0,60,0.00,,,0.00,0,Wunderground v.1.15,2013-05-15 02:55:00,
2013-05-14 22:00:00,74.4,59.6,29.93,SW,223,2.0,2.0,60,0.00,,,0.00,0,Wunderground v.1.15,2013-05-15 03:00:00,
2013-05-14 22:06:00,74.4,59.1,29.93,SSE,168,2.0,4.0,59,0.00,,,0.00,0,Wunderground v.1.15,2013-05-15 03:06:00,
2013-05-14 22:11:00,74.4,59.1,29.93,West,281,2.0,2.0,59,0.00,,,0.00,0,Wunderground v.1.15,2013-05-15 03:11:00,
2013-05-14 22:17:00,74.3,59.0,29.93,NNW,328,2.0,2.0,59,0.00,,,0.00,0,Wunderground v.1.15,2013-05-15 03:17:00,
2013-05-14 22:23:00,74.2,59.4,29.94,WNW,298,2.0,2.0,60,0.00,,,0.00,0,Wunderground v.1.15,2013-05-15 03:23:00,
2013-05-14 22:29:00,74.0,59.2,29.93,SE,144,1.0,2.0,60,0.00,,,0.00,0,Wunderground v.1.15,2013-05-15 03:29:00,
2013-05-14 22:35:00,73.9,59.1,29.93,NNE,27,1.0,7.0,60,0.00,,,0.00,0,Wunderground v.1.15,2013-05-15 03:35:00,
2013-05-14 22:41:00,73.9,59.1,29.93,ENE,66,2.0,7.0,60,0.00,,,0.00,0,Wunderground v.1.15,2013-05-15 03:41:00,
2013-05-14 22:47:00,73.8,59.0,29.93,SW,215,2.0,7.0,60,0.00,,,0.00,0,Wunderground v.1.15,2013-05-15 03:47:00,
2013-05-14 22:53:00,73.8,59.0,29.93,West,271,2.0,7.0,60,0.00,,,0.00,0,Wunderground v.1.15,2013-05-15 03:53:00,
2013-05-14 22:58:00,73.8,58.6,29.93,ESE,109,2.0,7.0,59,0.00,,,0.00,0,Wunderground v.1.15,2013-05-15 03:58:00,
2013-05-14 23:01:00,73.8,58.6,29.94,WNW,300,2.0,2.0,59,0.00,,,0.00,0,Wunderground v.1.15,2013-05-15 04:01:00,
2013-05-14 23:02:00,73.8,58.6,29.93,NW,319,2.0,3.0,59,0.00,,,0.00,0,Wunderground v.1.15,2013-05-15 04:02:00,
2013-05-14 23:04:00,73.8,58.6,29.93,NE,37,2.0,3.0,59,0.00,,,0.00,0,Wunderground v.1.15,2013-05-15 04:04:00,
2013-05-14 23:05:00,73.7,58.5,29.94,SW,223,2.0,3.0,59,0.00,,,0.00,0,Wunderground v.1.15,2013-05-15 04:05:00,
2013-05-14 23:07:00,73.8,58.6,29.94,WNW,296,2.0,3.0,59,0.00,,,0.00,0,Wunderground v.1.15,2013-05-15 04:07:00,
2013-05-14 23:13:00,73.8,58.6,29.93,NW,304,2.0,4.0,59,0.00,,,0.00,0,Wunderground v.1.15,2013-05-15 04:13:00,
2013-05-14 23:19:00,73.7,58.5,29.93,SW,221,2.0,5.0,59,0.00,,,0.00,0,Wunderground v.1.15,2013-05-15 04:19:00,
2013-05-14 23:24:00,73.5,58.3,29.93,WSW,255,2.0,2.0,59,0.00,,,0.00,0,Wunderground v.1.15,2013-05-15 04:24:00,
2013-05-14 23:30:00,73.4,58.2,29.93,WSW,237,2.0,4.0,59,0.00,,,0.00,0,Wunderground v.1.15,2013-05-15 04:30:00,
2013-05-14 23:36:00,73.3,58.1,29.93,West,267,2.0,7.0,59,0.00,,,0.00,0,Wunderground v.1.15,2013-05-15 04:36:00,
2013-05-14 23:42:00,73.1,58.4,29.93,West,267,1.0,7.0,60,0.00,,,0.00,0,Wunderground v.1.15,2013-05-15 04:42:00,
2013-05-14 23:48:00,72.9,58.2,29.94,WNW,301,2.0,7.0,60,0.00,,,0.00,0,Wunderground v.1.15,2013-05-15 04:48:00,
2013-05-14 23:54:00,72.8,58.1,29.93,SW,230,2.0,7.0,60,0.00,,,0.00,0,Wunderground v.1.15,2013-05-15 04:54:00,